createdAt,value
2023-09-27T00:00:42.843Z,101010.27
2023-09-27T00:06:05.761Z,101006.11
2023-09-27T00:11:09.041Z,101007.06
2023-09-27T00:16:12.517Z,101009.41
2023-09-27T00:21:15.657Z,101003.12
2023-09-27T00:26:18.624Z,100995.24
2023-09-27T00:31:21.797Z,100993.13
2023-09-27T00:36:24.983Z,100988.20
2023-09-27T00:41:27.972Z,100985.33
2023-09-27T00:46:31.022Z,100985.76
2023-09-27T00:51:34.779Z,100985.30
2023-09-27T00:56:38.667Z,100980.67
2023-09-27T01:01:42.827Z,100982.04
2023-09-27T01:06:45.895Z,100980.58
2023-09-27T01:11:49.422Z,100978.78
2023-09-27T01:16:52.422Z,100972.41
2023-09-27T01:21:55.422Z,100972.20
2023-09-27T01:27:00.852Z,100971.44
2023-09-27T01:32:04.162Z,100971.02
2023-09-27T01:37:09.258Z,100970.31
2023-09-27T01:42:12.468Z,100972.06
2023-09-27T01:47:15.583Z,100973.86
2023-09-27T01:52:18.900Z,100969.33
2023-09-27T01:57:22.015Z,100969.99
2023-09-27T02:02:25.150Z,100969.13
2023-09-27T02:07:28.319Z,100966.27
2023-09-27T02:12:31.326Z,100961.95
2023-09-27T02:17:34.759Z,100962.81
2023-09-27T02:22:39.051Z,100960.84
2023-09-27T02:27:43.210Z,100960.92
2023-09-27T02:32:47.300Z,100962.71
2023-09-27T02:37:50.659Z,100964.16
2023-09-27T02:42:53.873Z,100966.17
2023-09-27T02:47:56.952Z,100962.90
2023-09-27T02:53:00.140Z,100955.77
2023-09-27T02:58:03.347Z,100954.41
2023-09-27T03:03:08.850Z,100953.79
2023-09-27T03:08:12.129Z,100953.70
2023-09-27T03:13:16.013Z,100956.55
2023-09-27T03:18:19.115Z,100956.55
2023-09-27T03:23:22.508Z,100952.29
2023-09-27T03:28:25.645Z,100951.92
2023-09-27T03:33:28.900Z,100950.00
2023-09-27T03:38:33.555Z,100945.31
2023-09-27T03:43:36.810Z,100943.11
2023-09-27T03:48:39.944Z,100942.95
2023-09-27T03:53:42.929Z,100941.41
2023-09-27T03:58:46.036Z,100945.13
2023-09-27T04:03:49.329Z,100940.80
2023-09-27T04:08:53.059Z,100943.34
2023-09-27T04:13:56.413Z,100939.32
2023-09-27T04:19:00.317Z,100941.65
2023-09-27T04:24:05.504Z,100943.56
2023-09-27T04:29:09.043Z,100943.70
2023-09-27T04:34:12.731Z,100950.11
2023-09-27T04:39:18.389Z,100953.55
2023-09-27T04:44:21.633Z,100955.54
2023-09-27T04:49:24.812Z,100958.20
2023-09-27T04:54:27.949Z,100962.36
2023-09-27T04:59:31.162Z,100965.06
2023-09-27T05:04:34.201Z,100961.79
2023-09-27T05:09:37.255Z,100957.92
2023-09-27T05:14:41.029Z,100954.17
2023-09-27T05:19:44.487Z,100958.52
2023-09-27T05:24:48.390Z,100962.25
2023-09-27T05:29:51.638Z,100967.25
2023-09-27T05:34:54.839Z,100968.23
2023-09-27T05:39:58.152Z,100973.06
2023-09-27T05:45:01.170Z,100966.89
2023-09-27T05:50:05.718Z,100970.39
2023-09-27T05:55:09.284Z,100967.98
2023-09-27T06:00:24.980Z,100967.81
2023-09-27T06:05:28.286Z,100970.30
2023-09-27T06:10:31.554Z,100978.58
2023-09-27T06:15:35.505Z,100976.75
2023-09-27T06:20:40.476Z,100975.91
2023-09-27T06:25:45.179Z,100980.12
2023-09-27T06:30:48.393Z,100983.16
2023-09-27T06:35:51.400Z,100985.70
2023-09-27T06:40:56.149Z,100992.59
2023-09-27T06:46:02.734Z,100994.09
2023-09-27T06:51:07.135Z,100995.96
2023-09-27T06:56:10.654Z,100999.52
2023-09-27T07:01:14.886Z,101005.29
2023-09-27T07:06:18.796Z,101013.40
2023-09-27T07:11:22.661Z,101014.14
2023-09-27T07:16:30.982Z,101020.25
2023-09-27T07:21:34.243Z,101018.14
2023-09-27T07:26:38.063Z,101022.95
2023-09-27T07:31:41.271Z,101026.48
2023-09-27T07:36:45.511Z,101030.52
2023-09-27T07:41:49.024Z,101036.63
2023-09-27T07:46:52.786Z,101036.66
2023-09-27T07:51:57.085Z,101034.55
2023-09-27T07:57:01.326Z,101028.65
2023-09-27T08:02:04.457Z,101021.94
2023-09-27T08:07:07.639Z,101014.62
2023-09-27T08:12:10.856Z,101009.38
2023-09-27T08:17:14.141Z,101006.30
2023-09-27T08:22:17.378Z,101009.89
2023-09-27T08:27:20.586Z,101003.79
2023-09-27T08:32:23.731Z,101000.96
2023-09-27T08:37:26.906Z,101004.48
2023-09-27T08:42:32.987Z,101007.84
2023-09-27T08:47:36.454Z,101012.34
2023-09-27T08:52:39.721Z,101008.39
2023-09-27T08:57:47.126Z,101009.77
2023-09-27T09:02:53.924Z,101010.71
2023-09-27T09:07:58.789Z,101001.98
2023-09-27T09:13:02.229Z,100992.28
2023-09-27T09:18:07.973Z,100993.08
2023-09-27T09:23:14.157Z,100992.86
2023-09-27T09:28:17.355Z,100993.29
2023-09-27T09:33:21.460Z,100986.33
2023-09-27T09:38:35.615Z,100986.02
2023-09-27T09:43:40.441Z,100979.08
2023-09-27T09:48:45.757Z,100978.20
2023-09-27T09:53:49.297Z,100986.76
2023-09-27T09:58:58.952Z,100989.27
2023-09-27T10:04:05.985Z,100987.31
2023-09-27T10:09:16.539Z,100985.48
2023-09-27T10:14:20.594Z,100977.67
2023-09-27T10:19:29.777Z,100974.32
2023-09-27T10:24:37.727Z,100968.31
2023-09-27T10:29:59.712Z,100970.52
2023-09-27T10:35:18.199Z,100966.51
2023-09-27T10:40:22.720Z,100951.34
2023-09-27T10:45:26.324Z,100955.53
2023-09-27T10:50:31.490Z,100956.59
2023-09-27T10:55:39.998Z,100953.05
2023-09-27T11:00:56.699Z,100948.58
2023-09-27T11:06:13.629Z,100945.15
2023-09-27T11:11:17.518Z,100941.55
2023-09-27T11:16:20.816Z,100945.54
2023-09-27T11:21:28.229Z,100939.77
2023-09-27T11:26:32.968Z,100932.77
2023-09-27T11:31:37.701Z,100933.15
2023-09-27T11:36:52.715Z,100929.49
2023-09-27T11:42:00.621Z,100930.09
2023-09-27T11:47:13.397Z,100923.73
2023-09-27T11:52:16.485Z,100927.83
2023-09-27T11:57:19.587Z,100924.08
2023-09-27T12:02:28.120Z,100919.11
2023-09-27T12:07:34.859Z,100915.09
2023-09-27T12:12:38.653Z,100915.50
2023-09-27T12:17:41.925Z,100914.55
2023-09-27T12:22:45.471Z,100915.88
2023-09-27T12:27:48.488Z,100912.52
2023-09-27T12:32:52.752Z,100907.38
2023-09-27T12:37:56.035Z,100904.89
2023-09-27T12:42:59.242Z,100905.71
2023-09-27T12:48:02.868Z,100905.04
2023-09-27T12:53:06.085Z,100906.98
2023-09-27T12:58:09.477Z,100900.17
2023-09-27T13:03:13.040Z,100901.04
2023-09-27T13:08:16.767Z,100892.90
2023-09-27T13:13:20.086Z,100885.75
2023-09-27T13:18:23.182Z,100885.16
2023-09-27T13:23:26.405Z,100877.14
2023-09-27T13:28:29.708Z,100873.67
2023-09-27T13:33:33.127Z,100876.89
2023-09-27T13:38:38.876Z,100872.55
2023-09-27T13:43:42.086Z,100867.91
2023-09-27T13:48:45.286Z,100864.36
2023-09-27T13:53:48.639Z,100857.51
2023-09-27T13:58:52.387Z,100855.01
2023-09-27T14:03:55.844Z,100848.19
2023-09-27T14:08:59.327Z,100842.17
2023-09-27T14:14:04.313Z,100840.48
2023-09-27T14:19:07.471Z,100834.84
2023-09-27T14:24:11.157Z,100830.52
2023-09-27T14:29:22.358Z,100830.59
2023-09-27T14:39:43.373Z,100830.23
2023-09-27T14:44:46.933Z,100830.52
2023-09-27T14:49:50.218Z,100824.23
2023-09-27T14:54:53.532Z,100824.79
2023-09-27T14:59:57.548Z,100830.42
2023-09-27T15:05:00.856Z,100830.37
2023-09-27T15:10:04.421Z,100828.60
2023-09-27T15:15:08.417Z,100825.64
2023-09-27T15:20:14.015Z,100822.99
2023-09-27T15:25:17.757Z,100828.92
2023-09-27T15:30:21.183Z,100827.02
2023-09-27T15:35:26.835Z,100829.35
2023-09-27T15:40:32.388Z,100829.90
2023-09-27T15:45:35.508Z,100827.75
2023-09-27T15:50:38.606Z,100827.40
2023-09-27T15:55:41.688Z,100832.83
2023-09-27T16:00:45.141Z,100832.89
2023-09-27T16:05:51.641Z,100833.33
2023-09-27T16:10:56.123Z,100839.23
2023-09-27T16:15:59.975Z,100833.80
2023-09-27T16:27:38.687Z,100836.28
2023-09-27T16:33:01.725Z,100842.40
2023-09-27T16:38:05.553Z,100844.02
2023-09-27T16:43:09.462Z,100841.80
2023-09-27T16:48:12.938Z,100846.06
2023-09-27T16:53:16.460Z,100842.96
2023-09-27T16:58:19.890Z,100844.05
2023-09-27T17:03:23.528Z,100844.38
2023-09-27T17:08:27.233Z,100844.20
2023-09-27T17:13:30.665Z,100843.88
2023-09-27T17:18:34.211Z,100846.02
2023-09-27T17:23:38.352Z,100848.48
2023-09-27T17:28:42.081Z,100852.27
2023-09-27T17:33:49.837Z,100849.08
2023-09-27T17:38:54.023Z,100849.61
2023-09-27T17:43:58.605Z,100845.90
2023-09-27T17:49:02.766Z,100845.84
2023-09-27T17:54:08.722Z,100844.09
2023-09-27T17:59:12.303Z,100843.76
2023-09-27T18:04:16.226Z,100842.58
2023-09-27T18:09:19.582Z,100846.02
2023-09-27T18:14:24.037Z,100847.76
2023-09-27T18:19:27.828Z,100848.40
2023-09-27T18:24:31.054Z,100850.33
2023-09-27T18:29:34.519Z,100862.00
2023-09-27T18:34:39.316Z,100854.12
2023-09-27T18:39:52.000Z,100859.90
2023-09-27T18:44:55.777Z,100858.54
2023-09-27T18:50:00.496Z,100855.67
2023-09-27T18:55:05.414Z,100857.92
2023-09-27T19:00:09.316Z,100859.41
2023-09-27T19:05:12.953Z,100855.41
2023-09-27T19:10:16.481Z,100853.38
2023-09-27T19:15:19.751Z,100852.26
2023-09-27T19:20:23.109Z,100849.33
2023-09-27T19:25:26.427Z,100849.27
2023-09-27T19:30:29.702Z,100849.79
2023-09-27T19:35:32.825Z,100848.73
2023-09-27T19:40:36.065Z,100846.09
2023-09-27T19:45:39.311Z,100845.15
2023-09-27T19:50:42.440Z,100846.23
2023-09-27T19:55:45.846Z,100842.76
2023-09-27T20:00:49.071Z,100835.09
2023-09-27T20:05:52.200Z,100833.25
2023-09-27T20:10:55.382Z,100830.83
2023-09-27T20:15:59.370Z,100824.38
2023-09-27T20:21:05.373Z,100818.04
2023-09-27T20:26:13.815Z,100811.38
2023-09-27T20:31:32.205Z,100816.64
2023-09-27T20:36:40.015Z,100816.64
2023-09-27T20:41:43.500Z,100813.57
2023-09-27T20:46:47.175Z,100805.36
2023-09-27T20:51:54.839Z,100805.38
2023-09-27T20:57:04.404Z,100803.66
2023-09-27T21:02:11.553Z,100799.41
2023-09-27T21:07:14.955Z,100797.38
2023-09-27T21:12:18.063Z,100797.65
2023-09-27T21:17:21.388Z,100799.16
2023-09-27T21:22:24.481Z,100795.98
2023-09-27T21:27:27.897Z,100793.13
2023-09-27T21:32:31.107Z,100790.58
2023-09-27T21:37:34.229Z,100789.29
2023-09-27T21:42:37.734Z,100784.27
2023-09-27T21:47:40.798Z,100783.70
2023-09-27T21:52:44.283Z,100784.64
2023-09-27T21:57:47.377Z,100783.59
2023-09-27T22:02:50.515Z,100783.08
2023-09-27T22:07:53.925Z,100775.02
2023-09-27T22:12:57.116Z,100774.10
2023-09-27T22:18:02.414Z,100776.86
2023-09-27T22:23:06.691Z,100774.93
2023-09-27T22:28:17.602Z,100774.45
2023-09-27T22:33:20.709Z,100778.41
2023-09-27T22:38:25.145Z,100773.73
2023-09-27T22:43:28.290Z,100775.95
2023-09-27T22:48:31.467Z,100775.35
2023-09-27T22:53:36.912Z,100774.61
2023-09-27T22:58:40.340Z,100772.02
2023-09-27T23:03:45.947Z,100771.02
2023-09-27T23:08:53.129Z,100769.00
2023-09-27T23:13:59.128Z,100769.96
2023-09-27T23:19:02.378Z,100770.61
2023-09-27T23:24:31.901Z,100771.31
2023-09-27T23:29:35.894Z,100767.93
2023-09-27T23:34:38.998Z,100765.40
2023-09-27T23:39:48.579Z,100769.47
2023-09-27T23:45:03.223Z,100770.20
2023-09-27T23:50:12.128Z,100771.40
2023-09-27T23:55:18.747Z,100771.40
